createdAt,value
2018-11-06T00:00:49.809Z,5.20
2018-11-06T00:03:24.570Z,5.20
2018-11-06T00:05:53.001Z,5.20
2018-11-06T00:08:21.267Z,5.30
2018-11-06T00:10:49.669Z,5.30
2018-11-06T00:13:17.869Z,5.30
2018-11-06T00:15:47.407Z,5.20
2018-11-06T00:18:16.645Z,5.20
2018-11-06T00:20:44.643Z,5.10
2018-11-06T00:23:12.631Z,5.20
2018-11-06T00:25:41.528Z,5.20
2018-11-06T00:28:10.327Z,5.20
2018-11-06T00:30:38.469Z,5.30
2018-11-06T00:33:06.528Z,5.30
2018-11-06T00:35:34.571Z,5.30
2018-11-06T00:38:03.253Z,5.20
2018-11-06T00:40:31.349Z,5.10
2018-11-06T00:43:03.301Z,5.20
2018-11-06T00:45:32.852Z,5.00
2018-11-06T00:48:00.823Z,5.00
2018-11-06T00:50:28.990Z,5.00
2018-11-06T00:52:56.954Z,5.10
2018-11-06T00:55:25.094Z,5.10
2018-11-06T00:57:53.093Z,5.00
2018-11-06T01:00:21.302Z,5.00
2018-11-06T01:02:49.627Z,4.90
2018-11-06T01:05:18.061Z,4.90
2018-11-06T01:07:47.606Z,4.90
2018-11-06T01:10:15.698Z,5.00
2018-11-06T01:12:43.753Z,5.00
2018-11-06T01:15:13.991Z,5.00
2018-11-06T01:17:43.220Z,5.00
2018-11-06T01:20:14.090Z,5.10
2018-11-06T01:22:42.563Z,5.10
2018-11-06T01:25:11.678Z,5.10
2018-11-06T01:27:40.003Z,5.10
2018-11-06T01:30:15.080Z,5.10
2018-11-06T01:32:43.848Z,5.10
2018-11-06T01:35:13.533Z,5.10
2018-11-06T01:37:42.281Z,5.10
2018-11-06T01:40:12.927Z,5.10
2018-11-06T01:42:41.606Z,4.90
2018-11-06T01:45:11.611Z,4.90
2018-11-06T01:47:39.976Z,4.90
2018-11-06T01:50:10.104Z,5.00
2018-11-06T01:52:38.213Z,4.80
2018-11-06T01:55:08.612Z,4.90
2018-11-06T01:57:36.795Z,5.00
2018-11-06T02:00:06.504Z,5.00
2018-11-06T02:02:34.596Z,4.90
2018-11-06T02:05:02.838Z,5.00
2018-11-06T02:07:35.247Z,5.10
2018-11-06T02:10:03.620Z,5.00
2018-11-06T02:12:31.777Z,5.00
2018-11-06T02:14:59.941Z,4.80
2018-11-06T02:17:28.989Z,4.70
2018-11-06T02:19:57.194Z,4.70
2018-11-06T02:22:25.217Z,4.70
2018-11-06T02:24:53.480Z,4.70
2018-11-06T02:27:21.526Z,4.70
2018-11-06T02:29:49.498Z,4.70
2018-11-06T02:32:20.924Z,4.70
2018-11-06T02:34:50.161Z,4.60
2018-11-06T02:37:18.380Z,4.60
2018-11-06T02:39:49.497Z,4.50
2018-11-06T02:42:18.031Z,4.50
2018-11-06T02:44:48.633Z,4.50
2018-11-06T02:47:18.880Z,4.50
2018-11-06T02:49:46.882Z,4.50
2018-11-06T02:52:14.952Z,4.50
2018-11-06T02:54:43.031Z,4.60
2018-11-06T02:57:11.056Z,4.60
2018-11-06T02:59:39.879Z,4.60
2018-11-06T03:02:08.041Z,4.50
2018-11-06T03:04:39.056Z,4.30
2018-11-06T03:07:15.363Z,4.40
2018-11-06T03:09:43.517Z,4.40
2018-11-06T03:12:11.698Z,4.40
2018-11-06T03:14:39.824Z,4.40
2018-11-06T03:17:07.868Z,4.40
2018-11-06T03:19:35.971Z,4.40
2018-11-06T03:22:04.007Z,4.30
2018-11-06T03:24:32.546Z,4.30
2018-11-06T03:27:00.777Z,4.40
2018-11-06T03:29:28.705Z,4.40
2018-11-06T03:31:56.675Z,4.40
2018-11-06T03:34:24.577Z,4.30
2018-11-06T03:36:52.586Z,4.40
2018-11-06T03:39:20.799Z,4.40
2018-11-06T03:41:48.859Z,4.30
2018-11-06T03:44:16.880Z,4.20
2018-11-06T03:46:45.043Z,4.30
2018-11-06T03:49:13.351Z,4.30
2018-11-06T03:51:46.597Z,4.30
2018-11-06T03:54:14.578Z,4.30
2018-11-06T03:56:43.202Z,4.30
2018-11-06T03:59:11.191Z,4.40
2018-11-06T04:01:39.447Z,4.40
2018-11-06T04:04:09.441Z,4.40
2018-11-06T04:06:38.410Z,4.40
2018-11-06T04:09:10.044Z,4.50
2018-11-06T04:11:38.785Z,4.50
2018-11-06T04:14:08.560Z,4.30
2018-11-06T04:16:36.968Z,4.10
2018-11-06T04:19:07.423Z,4.20
2018-11-06T04:21:37.723Z,4.20
2018-11-06T04:24:12.343Z,4.30
2018-11-06T04:26:42.015Z,4.20
2018-11-06T04:29:10.444Z,4.00
2018-11-06T04:31:39.266Z,4.00
2018-11-06T04:34:08.162Z,4.10
2018-11-06T04:36:36.176Z,4.20
2018-11-06T04:39:06.869Z,4.20
2018-11-06T04:41:34.995Z,4.30
2018-11-06T04:44:04.913Z,4.10
2018-11-06T04:46:32.916Z,4.20
2018-11-06T04:49:01.037Z,4.20
2018-11-06T04:51:29.089Z,4.20
2018-11-06T04:54:00.111Z,4.20
2018-11-06T04:56:28.964Z,4.20
2018-11-06T04:58:57.102Z,4.20
2018-11-06T05:01:25.686Z,4.20
2018-11-06T05:03:54.835Z,4.20
2018-11-06T05:06:22.928Z,4.30
2018-11-06T05:08:51.171Z,4.30
2018-11-06T05:11:19.382Z,4.20
2018-11-06T05:13:47.504Z,4.20
2018-11-06T05:16:15.517Z,4.20
2018-11-06T05:18:44.633Z,4.10
2018-11-06T05:21:12.690Z,4.20
2018-11-06T05:23:40.808Z,4.00
2018-11-06T05:26:08.957Z,4.00
2018-11-06T05:28:37.123Z,4.10
2018-11-06T05:31:05.333Z,4.00
2018-11-06T05:33:33.374Z,4.00
2018-11-06T05:36:01.416Z,4.10
2018-11-06T05:38:30.297Z,4.00
2018-11-06T05:41:03.880Z,4.00
2018-11-06T05:43:32.047Z,4.00
2018-11-06T05:46:02.056Z,4.10
2018-11-06T05:48:30.745Z,4.20
2018-11-06T05:51:01.891Z,4.20
2018-11-06T05:53:30.650Z,4.20
2018-11-06T05:55:58.856Z,4.20
2018-11-06T05:58:27.137Z,4.20
2018-11-06T06:00:56.170Z,4.10
2018-11-06T06:03:25.039Z,4.20
2018-11-06T06:05:53.077Z,4.20
2018-11-06T06:08:21.183Z,4.20
2018-11-06T06:10:49.226Z,4.10
2018-11-06T06:13:17.455Z,4.20
2018-11-06T06:15:45.619Z,4.20
2018-11-06T06:18:13.744Z,4.30
2018-11-06T06:20:43.992Z,4.20
2018-11-06T06:23:12.120Z,4.30
2018-11-06T06:25:40.788Z,4.20
2018-11-06T06:28:10.637Z,4.20
2018-11-06T06:30:38.776Z,4.20
2018-11-06T06:33:06.992Z,4.20
2018-11-06T06:35:35.061Z,4.30
2018-11-06T06:38:03.169Z,4.40
2018-11-06T06:40:32.605Z,4.50
2018-11-06T06:43:01.066Z,4.50
2018-11-06T06:45:29.154Z,4.50
2018-11-06T06:47:57.243Z,4.30
2018-11-06T06:50:25.350Z,4.30
2018-11-06T06:53:01.280Z,4.40
2018-11-06T06:55:30.057Z,4.20
2018-11-06T06:57:58.115Z,4.20
2018-11-06T07:00:29.901Z,4.30
2018-11-06T07:02:58.703Z,4.30
2018-11-06T07:05:29.037Z,4.40
2018-11-06T07:07:57.990Z,4.30
2018-11-06T07:10:26.114Z,4.30
2018-11-06T07:12:54.123Z,4.20
2018-11-06T07:15:29.155Z,4.20
2018-11-06T07:17:57.317Z,4.20
2018-11-06T07:20:26.513Z,4.30
2018-11-06T07:22:54.635Z,4.30
2018-11-06T07:25:28.745Z,4.30
2018-11-06T07:27:56.842Z,4.20
2018-11-06T07:30:24.910Z,4.30
2018-11-06T07:32:53.082Z,4.40
2018-11-06T07:35:21.113Z,4.50
2018-11-06T07:37:49.085Z,4.40
2018-11-06T07:40:18.558Z,4.40
2018-11-06T07:42:46.847Z,4.30
2018-11-06T07:45:19.248Z,4.20
2018-11-06T07:47:47.319Z,4.20
2018-11-06T07:50:16.276Z,4.20
2018-11-06T07:52:44.863Z,4.30
2018-11-06T07:55:14.617Z,4.70
2018-11-06T07:57:42.770Z,4.60
2018-11-06T08:00:16.970Z,4.70
2018-11-06T08:02:45.860Z,4.70
2018-11-06T08:05:14.804Z,4.70
2018-11-06T08:07:45.720Z,4.80
2018-11-06T08:10:14.822Z,4.80
2018-11-06T08:12:45.764Z,4.90
2018-11-06T08:15:17.926Z,5.10
2018-11-06T08:20:43.692Z,5.20
2018-11-06T08:23:14.801Z,5.10
2018-11-06T08:25:45.196Z,5.20
2018-11-06T08:28:13.922Z,5.50
2018-11-06T08:30:44.673Z,5.50
2018-11-06T08:33:13.684Z,5.50
2018-11-06T08:35:41.898Z,5.60
2018-11-06T08:38:11.764Z,5.70
2018-11-06T08:40:41.910Z,5.80
2018-11-06T08:43:10.564Z,5.90
2018-11-06T08:45:39.903Z,5.90
2018-11-06T08:48:08.676Z,5.90
2018-11-06T08:50:36.865Z,5.90
2018-11-06T08:53:08.562Z,5.90
2018-11-06T08:55:36.816Z,6.00
2018-11-06T08:58:05.780Z,6.00
2018-11-06T09:00:33.857Z,5.90
2018-11-06T09:03:02.337Z,6.00
2018-11-06T09:05:30.882Z,6.20
2018-11-06T09:07:59.117Z,6.00
2018-11-06T09:10:27.261Z,5.90
2018-11-06T09:12:58.638Z,5.90
2018-11-06T09:15:32.002Z,6.10
2018-11-06T09:18:00.379Z,6.20
2018-11-06T09:20:29.207Z,6.30
2018-11-06T09:22:57.513Z,6.00
2018-11-06T09:25:26.661Z,6.00
2018-11-06T09:27:54.788Z,5.80
2018-11-06T09:30:23.780Z,6.00
2018-11-06T09:32:52.014Z,6.30
2018-11-06T09:35:22.318Z,6.40
2018-11-06T09:37:52.470Z,6.70
2018-11-06T09:40:20.905Z,7.00
2018-11-06T09:42:51.257Z,7.10
2018-11-06T09:45:21.060Z,7.40
2018-11-06T09:47:50.500Z,7.40
2018-11-06T09:50:20.185Z,6.90
2018-11-06T09:52:48.824Z,6.40
2018-11-06T09:55:17.799Z,6.10
2018-11-06T09:57:46.608Z,6.30
2018-11-06T10:00:17.177Z,6.60
2018-11-06T10:02:45.712Z,6.70
2018-11-06T10:05:31.064Z,7.00
2018-11-06T10:07:59.346Z,7.20
2018-11-06T10:10:27.378Z,7.10
2018-11-06T10:12:56.500Z,7.00
2018-11-06T10:15:28.588Z,7.20
2018-11-06T10:17:57.595Z,7.00
2018-11-06T10:20:27.918Z,7.20
2018-11-06T10:22:58.566Z,7.20
2018-11-06T10:25:27.076Z,7.10
2018-11-06T10:27:55.363Z,7.30
2018-11-06T10:33:04.166Z,7.30
2018-11-06T10:35:33.129Z,7.20
2018-11-06T10:38:05.238Z,7.40
2018-11-06T10:40:33.761Z,7.50
2018-11-06T10:43:03.656Z,7.50
2018-11-06T10:45:32.592Z,7.70
2018-11-06T10:48:01.200Z,8.00
2018-11-06T10:50:31.478Z,8.00
2018-11-06T10:53:02.816Z,8.00
2018-11-06T10:55:33.914Z,8.20
2018-11-06T10:58:09.816Z,8.40
2018-11-06T11:00:45.319Z,8.50
2018-11-06T11:03:19.607Z,8.50
2018-11-06T11:05:49.188Z,8.50
2018-11-06T11:08:18.263Z,8.70
2018-11-06T11:10:46.647Z,8.80
2018-11-06T11:13:26.012Z,8.90
2018-11-06T11:15:55.260Z,9.10
2018-11-06T11:18:38.518Z,9.50
2018-11-06T11:21:07.551Z,9.30
2018-11-06T11:23:39.941Z,9.30
2018-11-06T11:26:08.791Z,9.50
2018-11-06T11:28:37.006Z,9.70
2018-11-06T11:31:05.623Z,9.70
2018-11-06T11:33:33.703Z,9.80
2018-11-06T11:36:01.839Z,10.00
2018-11-06T11:38:30.975Z,10.20
2018-11-06T11:41:00.599Z,10.30
2018-11-06T11:43:28.794Z,10.40
2018-11-06T11:45:57.611Z,10.60
2018-11-06T11:48:25.732Z,10.80
2018-11-06T11:50:55.387Z,10.90
2018-11-06T11:53:23.742Z,11.00
2018-11-06T11:55:52.205Z,11.00
2018-11-06T11:58:36.071Z,11.30
2018-11-06T12:01:05.664Z,11.60
2018-11-06T12:03:38.147Z,11.60
2018-11-06T12:06:06.381Z,11.40
2018-11-06T12:08:34.423Z,11.20
2018-11-06T12:11:03.665Z,11.30
2018-11-06T12:13:37.684Z,11.40
2018-11-06T12:16:06.031Z,11.50
2018-11-06T12:18:36.347Z,11.50
2018-11-06T12:21:12.084Z,11.60
2018-11-06T12:23:41.367Z,11.70
2018-11-06T12:26:09.623Z,11.70
2018-11-06T12:28:40.206Z,11.60
2018-11-06T12:31:09.107Z,11.50
2018-11-06T12:33:38.083Z,11.50
2018-11-06T12:36:08.079Z,11.70
2018-11-06T12:38:36.178Z,12.30
2018-11-06T12:41:05.783Z,12.50
2018-11-06T12:43:34.039Z,12.40
2018-11-06T12:46:02.846Z,12.40
2018-11-06T12:54:17.784Z,12.30
2018-11-06T12:56:47.341Z,12.20
2018-11-06T12:59:17.727Z,12.10
2018-11-06T13:01:46.355Z,12.00
2018-11-06T13:04:18.103Z,11.90
2018-11-06T13:06:47.173Z,11.90
2018-11-06T13:09:16.547Z,11.80
2018-11-06T13:11:45.514Z,11.80
2018-11-06T13:14:18.302Z,11.70
2018-11-06T13:16:46.548Z,11.80
2018-11-06T13:19:15.814Z,11.70
2018-11-06T13:21:44.071Z,11.70
2018-11-06T13:24:12.347Z,11.70
2018-11-06T13:26:41.386Z,11.80
2018-11-06T13:29:09.657Z,11.70
2018-11-06T13:31:37.789Z,11.70
2018-11-06T13:34:07.400Z,11.70
2018-11-06T13:36:35.986Z,11.80
2018-11-06T13:39:08.884Z,11.80
2018-11-06T13:41:39.352Z,11.80
2018-11-06T13:44:09.115Z,11.80
2018-11-06T13:46:39.170Z,11.70
2018-11-06T13:49:09.886Z,11.50
2018-11-06T13:51:38.412Z,11.50
2018-11-06T13:54:08.877Z,11.60
2018-11-06T13:56:38.233Z,11.60
2018-11-06T13:59:08.518Z,11.60
2018-11-06T14:01:39.923Z,11.50
2018-11-06T14:04:11.273Z,11.50
2018-11-06T14:06:40.471Z,11.60
2018-11-06T14:09:10.266Z,11.60
2018-11-06T14:11:40.405Z,11.60
2018-11-06T14:14:09.173Z,11.60
2018-11-06T14:16:43.625Z,11.60
2018-11-06T14:19:11.705Z,11.60
2018-11-06T14:21:45.627Z,11.60
2018-11-06T14:24:15.549Z,11.60
2018-11-06T14:26:44.732Z,11.60
2018-11-06T14:29:15.667Z,11.60
2018-11-06T14:31:44.407Z,11.60
2018-11-06T14:34:13.911Z,11.60
2018-11-06T14:36:42.886Z,11.50
2018-11-06T14:39:12.289Z,11.50
2018-11-06T14:41:43.188Z,11.50
2018-11-06T14:44:12.290Z,11.40
2018-11-06T14:46:40.523Z,11.40
2018-11-06T14:49:11.287Z,11.40
2018-11-06T14:51:42.296Z,11.40
2018-11-06T14:54:10.511Z,11.40
2018-11-06T14:56:39.469Z,11.40
2018-11-06T14:59:07.610Z,11.40
2018-11-06T15:01:35.852Z,11.40
2018-11-06T15:04:04.097Z,11.30
2018-11-06T15:06:33.553Z,11.20
2018-11-06T15:09:01.610Z,11.10
2018-11-06T15:11:29.790Z,11.10
2018-11-06T15:13:59.829Z,11.10
2018-11-06T15:16:28.659Z,11.00
2018-11-06T15:19:02.712Z,11.00
2018-11-06T15:21:30.983Z,11.00
2018-11-06T15:23:59.561Z,10.90
2018-11-06T15:26:37.362Z,10.90
2018-11-06T15:29:06.078Z,10.80
2018-11-06T15:31:34.290Z,10.80
2018-11-06T15:34:04.240Z,10.80
2018-11-06T15:36:32.663Z,10.70
2018-11-06T15:39:03.277Z,10.70
2018-11-06T15:41:33.419Z,10.70
2018-11-06T15:44:04.583Z,10.60
2018-11-06T15:46:32.980Z,10.60
2018-11-06T15:49:01.231Z,10.50
2018-11-06T15:51:31.489Z,10.40
2018-11-06T15:54:00.532Z,10.40
2018-11-06T15:56:29.660Z,10.30
2018-11-06T15:58:58.494Z,10.30
2018-11-06T16:01:27.203Z,10.20
2018-11-06T16:04:00.576Z,10.20
2018-11-06T16:06:28.826Z,10.10
2018-11-06T16:08:57.675Z,10.10
2018-11-06T16:11:25.961Z,10.00
2018-11-06T16:13:54.119Z,10.00
2018-11-06T16:16:23.234Z,9.90
2018-11-06T16:18:52.586Z,9.90
2018-11-06T16:21:21.025Z,9.90
2018-11-06T16:24:03.017Z,9.80
2018-11-06T16:26:33.728Z,9.80
2018-11-06T16:29:04.296Z,9.80
2018-11-06T16:34:14.929Z,9.70
2018-11-06T16:36:45.021Z,9.60
2018-11-06T16:39:13.807Z,9.60
2018-11-06T16:41:44.285Z,9.60
2018-11-06T16:44:14.045Z,9.50
2018-11-06T16:46:42.190Z,9.50
2018-11-06T16:49:10.799Z,9.50
2018-11-06T16:51:40.482Z,9.50
2018-11-06T16:54:09.514Z,9.40
2018-11-06T16:56:37.863Z,9.40
2018-11-06T16:59:06.379Z,9.30
2018-11-06T17:01:39.668Z,9.30
2018-11-06T17:04:15.511Z,9.40
2018-11-06T17:06:47.375Z,9.30
2018-11-06T17:09:16.768Z,9.30
2018-11-06T17:11:46.076Z,9.30
2018-11-06T17:14:16.627Z,9.20
2018-11-06T17:16:47.140Z,9.20
2018-11-06T17:19:16.889Z,9.20
2018-11-06T17:21:44.878Z,9.20
2018-11-06T17:24:14.851Z,9.20
2018-11-06T17:26:43.452Z,9.20
2018-11-06T17:29:12.540Z,9.20
2018-11-06T17:31:41.717Z,9.10
2018-11-06T17:34:09.927Z,9.10
2018-11-06T17:36:39.289Z,9.00
2018-11-06T17:39:12.435Z,8.90
2018-11-06T17:41:47.163Z,8.90
2018-11-06T17:44:15.295Z,8.80
2018-11-06T17:46:43.894Z,8.80
2018-11-06T17:49:13.085Z,8.70
2018-11-06T17:51:42.490Z,8.70
2018-11-06T18:02:16.922Z,8.70
2018-11-06T18:04:46.144Z,8.60
2018-11-06T18:07:16.224Z,8.60
2018-11-06T18:09:48.014Z,8.50
2018-11-06T18:12:37.035Z,8.50
2018-11-06T18:15:11.640Z,8.50
2018-11-06T18:17:41.255Z,8.50
2018-11-06T18:20:13.501Z,8.50
2018-11-06T18:22:43.005Z,8.50
2018-11-06T18:28:04.357Z,8.40
2018-11-06T18:30:40.074Z,8.40
2018-11-06T18:33:08.193Z,8.40
2018-11-06T18:35:36.635Z,8.40
2018-11-06T18:38:05.030Z,8.20
2018-11-06T18:40:36.184Z,8.10
2018-11-06T18:43:06.868Z,8.00
2018-11-06T18:45:36.789Z,7.90
2018-11-06T18:48:17.060Z,7.80
2018-11-06T18:50:47.737Z,7.80
2018-11-06T18:56:05.871Z,7.70
2018-11-06T18:58:36.386Z,7.60
2018-11-06T19:01:08.031Z,7.60
2018-11-06T19:03:43.326Z,7.60
2018-11-06T19:06:17.184Z,7.60
2018-11-06T19:08:54.688Z,7.60
2018-11-06T19:11:24.734Z,7.40
2018-11-06T19:13:57.774Z,7.40
2018-11-06T19:16:27.150Z,7.30
2018-11-06T19:19:08.264Z,7.20
2018-11-06T19:21:39.558Z,7.10
2018-11-06T19:24:10.736Z,7.10
2018-11-06T19:26:41.774Z,7.10
2018-11-06T19:29:27.327Z,7.20
2018-11-06T19:31:55.829Z,7.20
2018-11-06T19:34:31.414Z,7.20
2018-11-06T19:37:10.429Z,7.30
2018-11-06T19:39:40.036Z,7.40
2018-11-06T19:42:11.360Z,7.40
2018-11-06T19:44:43.585Z,7.50
2018-11-06T19:47:19.443Z,7.40
2018-11-06T19:49:48.258Z,7.40
2018-11-06T19:52:18.829Z,7.40
2018-11-06T19:54:48.598Z,7.50
2018-11-06T19:57:17.337Z,7.50
2018-11-06T19:59:47.186Z,7.50
2018-11-06T20:02:16.280Z,7.50
2018-11-06T20:04:48.751Z,7.60
2018-11-06T20:07:17.019Z,7.60
2018-11-06T20:09:46.752Z,7.60
2018-11-06T20:12:15.551Z,7.60
2018-11-06T20:14:45.149Z,7.50
2018-11-06T20:17:15.418Z,7.50
2018-11-06T20:19:44.820Z,7.60
2018-11-06T20:22:19.718Z,7.50
2018-11-06T20:25:04.300Z,7.50
2018-11-06T20:27:34.557Z,7.50
2018-11-06T20:30:03.320Z,7.50
2018-11-06T20:32:32.190Z,7.40
2018-11-06T20:35:02.165Z,7.40
2018-11-06T20:37:34.752Z,7.30
2018-11-06T20:40:13.817Z,7.20
2018-11-06T20:45:20.166Z,7.20
2018-11-06T20:47:48.808Z,7.20
2018-11-06T20:50:19.307Z,7.20
2018-11-06T20:52:47.950Z,7.20
2018-11-06T20:55:17.766Z,7.10
2018-11-06T20:57:46.547Z,7.20
2018-11-06T21:00:31.243Z,7.10
2018-11-06T21:03:01.803Z,7.00
2018-11-06T21:05:31.628Z,6.90
2018-11-06T21:08:01.390Z,7.00
2018-11-06T21:10:31.223Z,7.00
2018-11-06T21:13:00.251Z,7.00
2018-11-06T21:15:28.345Z,6.90
2018-11-06T21:18:00.321Z,7.00
2018-11-06T21:20:29.802Z,6.90
2018-11-06T21:22:57.966Z,6.90
2018-11-06T21:25:26.707Z,6.80
2018-11-06T21:27:54.705Z,6.80
2018-11-06T21:30:24.350Z,6.80
2018-11-06T21:32:56.013Z,6.80
2018-11-06T21:35:24.271Z,6.80
2018-11-06T21:37:52.330Z,6.90
2018-11-06T21:40:21.236Z,6.80
2018-11-06T21:42:52.396Z,6.70
2018-11-06T21:45:24.710Z,6.70
2018-11-06T21:47:53.306Z,6.70
2018-11-06T21:50:23.347Z,6.60
2018-11-06T21:52:51.628Z,6.60
2018-11-06T21:55:35.332Z,6.60
2018-11-06T21:58:05.432Z,6.50
2018-11-06T22:00:35.608Z,6.60
2018-11-06T22:03:05.652Z,6.60
2018-11-06T22:05:36.550Z,6.50
2018-11-06T22:08:05.951Z,6.60
2018-11-06T22:10:34.241Z,6.50
2018-11-06T22:13:06.091Z,6.50
2018-11-06T22:15:35.770Z,6.50
2018-11-06T22:18:04.746Z,6.40
2018-11-06T22:20:35.545Z,6.40
2018-11-06T22:23:03.778Z,6.40
2018-11-06T22:25:34.331Z,6.50
2018-11-06T22:28:02.555Z,6.50
2018-11-06T22:30:33.407Z,6.50
2018-11-06T22:33:02.640Z,6.40
2018-11-06T22:35:30.857Z,6.30
2018-11-06T22:37:59.801Z,6.40
2018-11-06T22:40:32.033Z,6.30
2018-11-06T22:43:02.000Z,6.30
2018-11-06T22:45:33.138Z,6.30
2018-11-06T22:48:01.239Z,6.30
2018-11-06T22:50:29.342Z,6.30
2018-11-06T22:52:58.965Z,6.30
2018-11-06T22:55:28.676Z,6.40
2018-11-06T22:57:56.879Z,6.40
2018-11-06T23:00:30.512Z,6.30
2018-11-06T23:02:59.421Z,6.40
2018-11-06T23:05:27.720Z,6.30
2018-11-06T23:08:04.991Z,6.30
2018-11-06T23:10:35.690Z,6.30
2018-11-06T23:13:03.867Z,6.30
2018-11-06T23:15:32.159Z,6.30
2018-11-06T23:18:00.192Z,6.30
2018-11-06T23:20:28.209Z,6.30
2018-11-06T23:22:56.494Z,6.20
2018-11-06T23:25:25.698Z,6.20
2018-11-06T23:27:54.330Z,6.10
2018-11-06T23:30:22.507Z,6.10
2018-11-06T23:32:51.764Z,6.00
2018-11-06T23:35:19.974Z,6.10
2018-11-06T23:37:48.074Z,6.00
2018-11-06T23:40:18.273Z,6.00
2018-11-06T23:42:47.363Z,5.90
2018-11-06T23:45:15.513Z,6.00
2018-11-06T23:47:43.915Z,6.10
2018-11-06T23:50:12.054Z,6.10
2018-11-06T23:52:40.535Z,6.20
2018-11-06T23:55:09.633Z,6.20
2018-11-06T23:57:38.923Z,6.30
